sensor_id;sensor_type;location;lat;lon;timestamp;P1;durP1;ratioP1;P2;durP2;ratioP2
38567;SDS011;24338;48.280;10.970;2022-11-23T00:00:40;4.25;;;1.50;;
38567;SDS011;24338;48.280;10.970;2022-11-23T00:03:10;6.65;;;1.67;;
38567;SDS011;24338;48.280;10.970;2022-11-23T00:05:41;3.95;;;1.52;;
38567;SDS011;24338;48.280;10.970;2022-11-23T00:08:08;4.32;;;1.27;;
38567;SDS011;24338;48.280;10.970;2022-11-23T00:10:34;4.72;;;1.85;;
38567;SDS011;24338;48.280;10.970;2022-11-23T00:13:01;6.15;;;1.45;;
38567;SDS011;24338;48.280;10.970;2022-11-23T00:15:28;5.43;;;1.48;;
38567;SDS011;24338;48.280;10.970;2022-11-23T00:17:55;3.30;;;1.40;;
38567;SDS011;24338;48.280;10.970;2022-11-23T00:20:22;7.20;;;1.40;;
38567;SDS011;24338;48.280;10.970;2022-11-23T00:22:49;3.55;;;1.10;;
38567;SDS011;24338;48.280;10.970;2022-11-23T00:25:16;4.43;;;1.23;;
38567;SDS011;24338;48.280;10.970;2022-11-23T00:27:42;3.00;;;1.33;;
38567;SDS011;24338;48.280;10.970;2022-11-23T00:30:09;4.90;;;1.10;;
38567;SDS011;24338;48.280;10.970;2022-11-23T00:32:37;5.20;;;1.30;;
38567;SDS011;24338;48.280;10.970;2022-11-23T00:35:04;4.70;;;1.08;;
38567;SDS011;24338;48.280;10.970;2022-11-23T00:37:30;4.05;;;1.65;;
38567;SDS011;24338;48.280;10.970;2022-11-23T00:39:57;4.20;;;0.90;;
38567;SDS011;24338;48.280;10.970;2022-11-23T00:42:24;4.47;;;1.20;;
38567;SDS011;24338;48.280;10.970;2022-11-23T00:44:51;3.35;;;0.98;;
38567;SDS011;24338;48.280;10.970;2022-11-23T00:47:18;4.05;;;1.23;;
38567;SDS011;24338;48.280;10.970;2022-11-23T00:49:44;4.03;;;0.95;;
38567;SDS011;24338;48.280;10.970;2022-11-23T00:52:11;4.00;;;1.30;;
38567;SDS011;24338;48.280;10.970;2022-11-23T00:54:38;2.28;;;0.60;;
38567;SDS011;24338;48.280;10.970;2022-11-23T00:57:05;3.42;;;1.00;;
38567;SDS011;24338;48.280;10.970;2022-11-23T00:59:32;6.30;;;1.20;;
38567;SDS011;24338;48.280;10.970;2022-11-23T01:01:59;5.63;;;1.10;;
38567;SDS011;24338;48.280;10.970;2022-11-23T01:04:26;3.53;;;1.20;;
38567;SDS011;24338;48.280;10.970;2022-11-23T01:06:54;3.30;;;0.88;;
38567;SDS011;24338;48.280;10.970;2022-11-23T01:09:24;3.25;;;1.35;;
38567;SDS011;24338;48.280;10.970;2022-11-23T01:11:52;4.22;;;1.15;;
38567;SDS011;24338;48.280;10.970;2022-11-23T01:14:19;4.40;;;1.15;;
38567;SDS011;24338;48.280;10.970;2022-11-23T01:16:47;2.90;;;0.75;;
38567;SDS011;24338;48.280;10.970;2022-11-23T01:19:15;3.15;;;0.80;;
38567;SDS011;24338;48.280;10.970;2022-11-23T01:21:43;3.55;;;1.10;;
38567;SDS011;24338;48.280;10.970;2022-11-23T01:24:11;4.60;;;1.05;;
38567;SDS011;24338;48.280;10.970;2022-11-23T01:26:43;5.90;;;1.40;;
38567;SDS011;24338;48.280;10.970;2022-11-23T01:31:45;5.43;;;1.48;;
38567;SDS011;24338;48.280;10.970;2022-11-23T01:34:12;5.85;;;1.67;;
38567;SDS011;24338;48.280;10.970;2022-11-23T01:36:41;4.57;;;1.77;;
38567;SDS011;24338;48.280;10.970;2022-11-23T01:39:09;3.75;;;1.75;;
38567;SDS011;24338;48.280;10.970;2022-11-23T01:41:38;6.32;;;1.92;;
38567;SDS011;24338;48.280;10.970;2022-11-23T01:46:58;4.68;;;1.15;;
38567;SDS011;24338;48.280;10.970;2022-11-23T01:49:26;4.28;;;1.30;;
38567;SDS011;24338;48.280;10.970;2022-11-23T01:51:58;5.57;;;2.25;;
38567;SDS011;24338;48.280;10.970;2022-11-23T01:54:31;4.07;;;1.10;;
38567;SDS011;24338;48.280;10.970;2022-11-23T01:57:03;2.83;;;1.23;;
38567;SDS011;24338;48.280;10.970;2022-11-23T01:59:34;7.55;;;1.02;;
38567;SDS011;24338;48.280;10.970;2022-11-23T02:02:02;2.35;;;0.82;;
38567;SDS011;24338;48.280;10.970;2022-11-23T02:04:30;3.00;;;0.90;;
38567;SDS011;24338;48.280;10.970;2022-11-23T02:07:00;3.53;;;0.95;;
38567;SDS011;24338;48.280;10.970;2022-11-23T02:09:29;3.42;;;1.05;;
38567;SDS011;24338;48.280;10.970;2022-11-23T02:11:58;3.17;;;0.70;;
38567;SDS011;24338;48.280;10.970;2022-11-23T02:14:26;7.60;;;0.85;;
38567;SDS011;24338;48.280;10.970;2022-11-23T02:16:56;4.57;;;0.90;;
38567;SDS011;24338;48.280;10.970;2022-11-23T02:19:28;2.92;;;1.08;;
38567;SDS011;24338;48.280;10.970;2022-11-23T02:22:06;4.20;;;1.92;;
38567;SDS011;24338;48.280;10.970;2022-11-23T02:24:41;3.50;;;1.00;;
38567;SDS011;24338;48.280;10.970;2022-11-23T02:27:14;3.80;;;1.00;;
38567;SDS011;24338;48.280;10.970;2022-11-23T02:29:41;2.60;;;0.95;;
38567;SDS011;24338;48.280;10.970;2022-11-23T02:32:08;6.05;;;1.20;;
38567;SDS011;24338;48.280;10.970;2022-11-23T02:34:35;6.22;;;1.10;;
38567;SDS011;24338;48.280;10.970;2022-11-23T02:37:02;5.90;;;1.30;;
38567;SDS011;24338;48.280;10.970;2022-11-23T02:39:36;3.28;;;0.80;;
38567;SDS011;24338;48.280;10.970;2022-11-23T02:42:05;3.67;;;1.17;;
38567;SDS011;24338;48.280;10.970;2022-11-23T02:47:14;4.53;;;0.88;;
38567;SDS011;24338;48.280;10.970;2022-11-23T02:49:43;6.18;;;1.25;;
38567;SDS011;24338;48.280;10.970;2022-11-23T02:52:12;5.40;;;1.50;;
38567;SDS011;24338;48.280;10.970;2022-11-23T02:54:40;2.65;;;1.00;;
38567;SDS011;24338;48.280;10.970;2022-11-23T02:57:07;5.70;;;1.15;;
38567;SDS011;24338;48.280;10.970;2022-11-23T02:59:35;7.57;;;1.08;;
38567;SDS011;24338;48.280;10.970;2022-11-23T03:02:02;4.63;;;1.08;;
38567;SDS011;24338;48.280;10.970;2022-11-23T03:04:30;3.88;;;1.10;;
38567;SDS011;24338;48.280;10.970;2022-11-23T03:06:57;2.85;;;1.10;;
38567;SDS011;24338;48.280;10.970;2022-11-23T03:09:24;2.60;;;1.48;;
38567;SDS011;24338;48.280;10.970;2022-11-23T03:11:52;3.55;;;0.93;;
38567;SDS011;24338;48.280;10.970;2022-11-23T03:14:19;3.63;;;0.85;;
38567;SDS011;24338;48.280;10.970;2022-11-23T03:16:47;3.28;;;0.85;;
38567;SDS011;24338;48.280;10.970;2022-11-23T03:19:14;5.28;;;1.02;;
38567;SDS011;24338;48.280;10.970;2022-11-23T03:21:40;5.82;;;1.10;;
38567;SDS011;24338;48.280;10.970;2022-11-23T03:24:07;4.43;;;0.80;;
38567;SDS011;24338;48.280;10.970;2022-11-23T03:26:34;3.70;;;1.00;;
38567;SDS011;24338;48.280;10.970;2022-11-23T03:29:01;4.63;;;1.00;;
38567;SDS011;24338;48.280;10.970;2022-11-23T03:31:28;6.60;;;1.58;;
38567;SDS011;24338;48.280;10.970;2022-11-23T03:33:55;4.93;;;0.90;;
38567;SDS011;24338;48.280;10.970;2022-11-23T03:36:22;3.88;;;1.00;;
38567;SDS011;24338;48.280;10.970;2022-11-23T03:38:48;3.10;;;1.00;;
38567;SDS011;24338;48.280;10.970;2022-11-23T03:41:15;6.55;;;1.17;;
38567;SDS011;24338;48.280;10.970;2022-11-23T03:43:42;5.20;;;1.38;;
38567;SDS011;24338;48.280;10.970;2022-11-23T03:46:09;5.53;;;1.73;;
38567;SDS011;24338;48.280;10.970;2022-11-23T03:48:36;2.97;;;0.77;;
38567;SDS011;24338;48.280;10.970;2022-11-23T03:51:03;1.77;;;0.80;;
38567;SDS011;24338;48.280;10.970;2022-11-23T03:53:30;1.95;;;0.90;;
38567;SDS011;24338;48.280;10.970;2022-11-23T03:55:56;2.63;;;0.90;;
38567;SDS011;24338;48.280;10.970;2022-11-23T03:58:23;3.63;;;1.10;;
38567;SDS011;24338;48.280;10.970;2022-11-23T04:00:50;2.67;;;1.00;;
38567;SDS011;24338;48.280;10.970;2022-11-23T04:03:17;3.90;;;0.82;;
38567;SDS011;24338;48.280;10.970;2022-11-23T04:05:44;3.35;;;1.38;;
38567;SDS011;24338;48.280;10.970;2022-11-23T04:08:11;4.65;;;1.63;;
38567;SDS011;24338;48.280;10.970;2022-11-23T04:10:38;5.43;;;1.23;;
38567;SDS011;24338;48.280;10.970;2022-11-23T04:13:04;3.25;;;1.00;;
38567;SDS011;24338;48.280;10.970;2022-11-23T04:15:31;4.13;;;1.20;;
38567;SDS011;24338;48.280;10.970;2022-11-23T04:17:58;4.93;;;1.33;;
38567;SDS011;24338;48.280;10.970;2022-11-23T04:20:25;4.30;;;1.30;;
38567;SDS011;24338;48.280;10.970;2022-11-23T04:22:53;3.15;;;1.17;;
38567;SDS011;24338;48.280;10.970;2022-11-23T04:25:20;4.10;;;1.20;;
38567;SDS011;24338;48.280;10.970;2022-11-23T04:27:47;2.67;;;1.05;;
38567;SDS011;24338;48.280;10.970;2022-11-23T04:30:14;4.57;;;1.30;;
38567;SDS011;24338;48.280;10.970;2022-11-23T04:32:43;5.55;;;1.30;;
38567;SDS011;24338;48.280;10.970;2022-11-23T04:35:11;3.70;;;1.13;;
38567;SDS011;24338;48.280;10.970;2022-11-23T04:37:38;4.22;;;1.30;;
38567;SDS011;24338;48.280;10.970;2022-11-23T04:40:05;4.68;;;1.83;;
38567;SDS011;24338;48.280;10.970;2022-11-23T04:42:32;3.25;;;1.60;;
38567;SDS011;24338;48.280;10.970;2022-11-23T04:44:59;3.22;;;1.33;;
38567;SDS011;24338;48.280;10.970;2022-11-23T04:47:26;3.80;;;1.67;;
38567;SDS011;24338;48.280;10.970;2022-11-23T04:49:53;3.85;;;1.30;;
38567;SDS011;24338;48.280;10.970;2022-11-23T04:52:19;3.95;;;1.40;;
38567;SDS011;24338;48.280;10.970;2022-11-23T04:54:46;5.57;;;1.90;;
38567;SDS011;24338;48.280;10.970;2022-11-23T04:57:13;7.82;;;2.20;;
38567;SDS011;24338;48.280;10.970;2022-11-23T04:59:40;8.40;;;2.55;;
38567;SDS011;24338;48.280;10.970;2022-11-23T05:02:07;4.80;;;2.30;;
38567;SDS011;24338;48.280;10.970;2022-11-23T05:04:34;4.13;;;1.52;;
38567;SDS011;24338;48.280;10.970;2022-11-23T05:07:01;5.53;;;1.73;;
38567;SDS011;24338;48.280;10.970;2022-11-23T05:09:28;4.00;;;1.90;;
38567;SDS011;24338;48.280;10.970;2022-11-23T05:11:55;7.10;;;2.20;;
38567;SDS011;24338;48.280;10.970;2022-11-23T05:14:22;6.15;;;1.67;;
38567;SDS011;24338;48.280;10.970;2022-11-23T05:16:48;4.28;;;1.55;;
38567;SDS011;24338;48.280;10.970;2022-11-23T05:19:15;4.30;;;2.25;;
38567;SDS011;24338;48.280;10.970;2022-11-23T05:21:42;5.72;;;1.83;;
38567;SDS011;24338;48.280;10.970;2022-11-23T05:24:09;3.90;;;2.00;;
38567;SDS011;24338;48.280;10.970;2022-11-23T05:26:36;5.30;;;2.10;;
38567;SDS011;24338;48.280;10.970;2022-11-23T05:29:03;4.70;;;1.85;;
38567;SDS011;24338;48.280;10.970;2022-11-23T05:31:29;5.38;;;1.77;;
38567;SDS011;24338;48.280;10.970;2022-11-23T05:33:56;4.38;;;1.95;;
38567;SDS011;24338;48.280;10.970;2022-11-23T05:36:23;6.72;;;2.70;;
38567;SDS011;24338;48.280;10.970;2022-11-23T05:38:50;4.97;;;1.90;;
38567;SDS011;24338;48.280;10.970;2022-11-23T05:41:17;5.93;;;2.08;;
38567;SDS011;24338;48.280;10.970;2022-11-23T05:43:44;3.97;;;1.63;;
38567;SDS011;24338;48.280;10.970;2022-11-23T05:46:11;4.05;;;1.45;;
38567;SDS011;24338;48.280;10.970;2022-11-23T05:48:38;4.82;;;1.55;;
38567;SDS011;24338;48.280;10.970;2022-11-23T05:51:04;5.90;;;1.45;;
38567;SDS011;24338;48.280;10.970;2022-11-23T05:53:31;5.15;;;1.25;;
38567;SDS011;24338;48.280;10.970;2022-11-23T05:55:59;4.95;;;2.45;;
38567;SDS011;24338;48.280;10.970;2022-11-23T05:58:27;6.90;;;3.35;;
38567;SDS011;24338;48.280;10.970;2022-11-23T06:01:00;6.78;;;2.58;;
38567;SDS011;24338;48.280;10.970;2022-11-23T06:03:27;5.88;;;2.50;;
38567;SDS011;24338;48.280;10.970;2022-11-23T06:05:54;5.80;;;3.30;;
38567;SDS011;24338;48.280;10.970;2022-11-23T06:08:21;7.03;;;3.03;;
38567;SDS011;24338;48.280;10.970;2022-11-23T06:10:48;4.07;;;2.35;;
38567;SDS011;24338;48.280;10.970;2022-11-23T06:13:15;6.50;;;3.00;;
38567;SDS011;24338;48.280;10.970;2022-11-23T06:15:41;5.20;;;2.13;;
38567;SDS011;24338;48.280;10.970;2022-11-23T06:18:08;8.52;;;2.67;;
38567;SDS011;24338;48.280;10.970;2022-11-23T06:20:35;7.50;;;3.40;;
38567;SDS011;24338;48.280;10.970;2022-11-23T06:23:02;6.03;;;3.05;;
38567;SDS011;24338;48.280;10.970;2022-11-23T06:25:29;6.57;;;2.85;;
38567;SDS011;24338;48.280;10.970;2022-11-23T06:27:57;6.10;;;3.30;;
38567;SDS011;24338;48.280;10.970;2022-11-23T06:30:26;8.25;;;3.10;;
38567;SDS011;24338;48.280;10.970;2022-11-23T06:32:54;7.97;;;3.35;;
38567;SDS011;24338;48.280;10.970;2022-11-23T06:35:22;6.88;;;2.90;;
38567;SDS011;24338;48.280;10.970;2022-11-23T06:37:50;4.93;;;2.85;;
38567;SDS011;24338;48.280;10.970;2022-11-23T06:40:18;4.90;;;2.55;;
38567;SDS011;24338;48.280;10.970;2022-11-23T06:42:46;6.95;;;2.60;;
38567;SDS011;24338;48.280;10.970;2022-11-23T06:45:13;4.68;;;2.42;;
38567;SDS011;24338;48.280;10.970;2022-11-23T06:47:40;5.88;;;2.50;;
38567;SDS011;24338;48.280;10.970;2022-11-23T06:50:09;7.53;;;2.42;;
38567;SDS011;24338;48.280;10.970;2022-11-23T06:52:35;6.15;;;2.50;;
38567;SDS011;24338;48.280;10.970;2022-11-23T06:55:02;5.57;;;2.92;;
38567;SDS011;24338;48.280;10.970;2022-11-23T06:57:29;7.20;;;3.05;;
38567;SDS011;24338;48.280;10.970;2022-11-23T06:59:56;6.80;;;2.97;;
38567;SDS011;24338;48.280;10.970;2022-11-23T07:02:23;7.15;;;3.05;;
38567;SDS011;24338;48.280;10.970;2022-11-23T07:04:50;14.93;;;4.82;;
38567;SDS011;24338;48.280;10.970;2022-11-23T07:07:18;8.68;;;3.33;;
38567;SDS011;24338;48.280;10.970;2022-11-23T07:09:45;8.25;;;3.03;;
38567;SDS011;24338;48.280;10.970;2022-11-23T07:12:12;7.95;;;3.75;;
38567;SDS011;24338;48.280;10.970;2022-11-23T07:14:39;7.43;;;3.10;;
38567;SDS011;24338;48.280;10.970;2022-11-23T07:17:05;7.95;;;3.83;;
38567;SDS011;24338;48.280;10.970;2022-11-23T07:19:32;9.65;;;3.60;;
38567;SDS011;24338;48.280;10.970;2022-11-23T07:21:59;9.88;;;3.03;;
38567;SDS011;24338;48.280;10.970;2022-11-23T07:24:26;10.98;;;2.90;;
38567;SDS011;24338;48.280;10.970;2022-11-23T07:26:58;8.32;;;4.10;;
38567;SDS011;24338;48.280;10.970;2022-11-23T07:31:58;10.63;;;4.15;;
38567;SDS011;24338;48.280;10.970;2022-11-23T07:34:28;9.15;;;3.90;;
38567;SDS011;24338;48.280;10.970;2022-11-23T07:36:55;6.40;;;3.50;;
38567;SDS011;24338;48.280;10.970;2022-11-23T07:39:27;10.63;;;3.47;;
38567;SDS011;24338;48.280;10.970;2022-11-23T07:42:14;9.10;;;4.18;;
38567;SDS011;24338;48.280;10.970;2022-11-23T07:45:01;9.73;;;4.88;;
38567;SDS011;24338;48.280;10.970;2022-11-23T07:47:31;7.82;;;3.97;;
38567;SDS011;24338;48.280;10.970;2022-11-23T07:49:58;8.38;;;4.38;;
38567;SDS011;24338;48.280;10.970;2022-11-23T07:52:25;8.93;;;3.95;;
38567;SDS011;24338;48.280;10.970;2022-11-23T07:54:52;10.25;;;3.45;;
38567;SDS011;24338;48.280;10.970;2022-11-23T07:57:19;6.35;;;2.92;;
38567;SDS011;24338;48.280;10.970;2022-11-23T07:59:45;9.43;;;3.65;;
38567;SDS011;24338;48.280;10.970;2022-11-23T08:02:13;5.68;;;2.95;;
38567;SDS011;24338;48.280;10.970;2022-11-23T08:04:40;10.25;;;3.47;;
38567;SDS011;24338;48.280;10.970;2022-11-23T08:07:07;7.55;;;3.00;;
38567;SDS011;24338;48.280;10.970;2022-11-23T08:09:34;8.73;;;3.80;;
38567;SDS011;24338;48.280;10.970;2022-11-23T08:12:02;6.53;;;3.72;;
38567;SDS011;24338;48.280;10.970;2022-11-23T08:14:29;8.80;;;3.67;;
38567;SDS011;24338;48.280;10.970;2022-11-23T08:16:56;9.45;;;3.83;;
38567;SDS011;24338;48.280;10.970;2022-11-23T08:19:23;7.78;;;3.45;;
38567;SDS011;24338;48.280;10.970;2022-11-23T08:21:50;11.27;;;3.70;;
38567;SDS011;24338;48.280;10.970;2022-11-23T08:24:16;7.20;;;3.25;;
38567;SDS011;24338;48.280;10.970;2022-11-23T08:26:43;7.00;;;3.03;;
38567;SDS011;24338;48.280;10.970;2022-11-23T08:29:11;5.03;;;2.65;;
38567;SDS011;24338;48.280;10.970;2022-11-23T08:31:38;6.93;;;3.03;;
38567;SDS011;24338;48.280;10.970;2022-11-23T08:34:04;5.78;;;2.60;;
38567;SDS011;24338;48.280;10.970;2022-11-23T08:36:31;6.28;;;2.22;;
38567;SDS011;24338;48.280;10.970;2022-11-23T08:38:58;5.75;;;1.63;;
38567;SDS011;24338;48.280;10.970;2022-11-23T08:41:25;4.90;;;1.75;;
38567;SDS011;24338;48.280;10.970;2022-11-23T08:43:52;6.00;;;1.63;;
38567;SDS011;24338;48.280;10.970;2022-11-23T08:46:19;5.03;;;1.70;;
38567;SDS011;24338;48.280;10.970;2022-11-23T08:48:46;4.10;;;1.40;;
38567;SDS011;24338;48.280;10.970;2022-11-23T08:51:13;3.80;;;1.58;;
38567;SDS011;24338;48.280;10.970;2022-11-23T08:53:39;5.38;;;2.17;;
38567;SDS011;24338;48.280;10.970;2022-11-23T08:56:06;4.15;;;1.55;;
38567;SDS011;24338;48.280;10.970;2022-11-23T08:58:33;4.38;;;1.92;;
38567;SDS011;24338;48.280;10.970;2022-11-23T09:01:06;5.18;;;1.90;;
38567;SDS011;24338;48.280;10.970;2022-11-23T09:03:34;5.25;;;2.00;;
38567;SDS011;24338;48.280;10.970;2022-11-23T09:06:01;7.32;;;1.83;;
38567;SDS011;24338;48.280;10.970;2022-11-23T09:08:28;3.50;;;1.40;;
38567;SDS011;24338;48.280;10.970;2022-11-23T09:10:59;5.15;;;1.70;;
38567;SDS011;24338;48.280;10.970;2022-11-23T09:13:27;3.03;;;1.02;;
38567;SDS011;24338;48.280;10.970;2022-11-23T09:15:58;4.90;;;0.95;;
38567;SDS011;24338;48.280;10.970;2022-11-23T09:18:26;3.50;;;1.13;;
38567;SDS011;24338;48.280;10.970;2022-11-23T09:20:56;5.77;;;1.10;;
38567;SDS011;24338;48.280;10.970;2022-11-23T09:23:24;4.53;;;1.17;;
38567;SDS011;24338;48.280;10.970;2022-11-23T09:25:52;4.72;;;0.77;;
38567;SDS011;24338;48.280;10.970;2022-11-23T09:28:19;5.80;;;1.25;;
38567;SDS011;24338;48.280;10.970;2022-11-23T09:30:45;3.38;;;1.73;;
38567;SDS011;24338;48.280;10.970;2022-11-23T09:33:13;4.25;;;0.88;;
38567;SDS011;24338;48.280;10.970;2022-11-23T09:35:40;8.35;;;1.23;;
38567;SDS011;24338;48.280;10.970;2022-11-23T09:38:09;2.95;;;1.08;;
38567;SDS011;24338;48.280;10.970;2022-11-23T09:40:37;2.03;;;0.52;;
38567;SDS011;24338;48.280;10.970;2022-11-23T09:46:01;2.25;;;0.60;;
38567;SDS011;24338;48.280;10.970;2022-11-23T09:51:36;1.90;;;0.40;;
38567;SDS011;24338;48.280;10.970;2022-11-23T09:54:20;2.85;;;0.55;;
38567;SDS011;24338;48.280;10.970;2022-11-23T09:57:08;3.45;;;0.75;;
38567;SDS011;24338;48.280;10.970;2022-11-23T09:59:40;3.78;;;0.70;;
38567;SDS011;24338;48.280;10.970;2022-11-23T10:02:19;3.47;;;0.63;;
38567;SDS011;24338;48.280;10.970;2022-11-23T10:04:49;2.60;;;0.70;;
38567;SDS011;24338;48.280;10.970;2022-11-23T10:10:36;3.00;;;0.40;;
38567;SDS011;24338;48.280;10.970;2022-11-23T10:15:29;4.00;;;0.70;;
38567;SDS011;24338;48.280;10.970;2022-11-23T10:20:48;2.50;;;0.60;;
38567;SDS011;24338;48.280;10.970;2022-11-23T10:25:57;8.50;;;1.23;;
38567;SDS011;24338;48.280;10.970;2022-11-23T10:28:27;3.38;;;0.63;;
38567;SDS011;24338;48.280;10.970;2022-11-23T10:31:00;6.22;;;0.57;;
38567;SDS011;24338;48.280;10.970;2022-11-23T10:33:43;3.85;;;0.47;;
38567;SDS011;24338;48.280;10.970;2022-11-23T10:36:13;3.90;;;0.75;;
38567;SDS011;24338;48.280;10.970;2022-11-23T10:38:39;2.90;;;0.50;;
38567;SDS011;24338;48.280;10.970;2022-11-23T10:41:11;4.72;;;0.85;;
38567;SDS011;24338;48.280;10.970;2022-11-23T10:43:46;3.38;;;0.30;;
38567;SDS011;24338;48.280;10.970;2022-11-23T10:46:29;3.40;;;0.68;;
38567;SDS011;24338;48.280;10.970;2022-11-23T10:49:14;1.98;;;0.95;;
38567;SDS011;24338;48.280;10.970;2022-11-23T10:51:54;3.75;;;0.45;;
38567;SDS011;24338;48.280;10.970;2022-11-23T10:54:22;2.63;;;0.40;;
38567;SDS011;24338;48.280;10.970;2022-11-23T10:56:53;7.00;;;0.65;;
38567;SDS011;24338;48.280;10.970;2022-11-23T10:59:39;2.42;;;0.50;;
38567;SDS011;24338;48.280;10.970;2022-11-23T11:04:41;2.10;;;0.45;;
38567;SDS011;24338;48.280;10.970;2022-11-23T11:07:09;5.68;;;0.90;;
38567;SDS011;24338;48.280;10.970;2022-11-23T11:09:51;2.38;;;0.52;;
38567;SDS011;24338;48.280;10.970;2022-11-23T11:12:20;3.55;;;0.43;;
38567;SDS011;24338;48.280;10.970;2022-11-23T11:15:29;3.13;;;0.63;;
38567;SDS011;24338;48.280;10.970;2022-11-23T11:17:38;3.88;;;0.57;;
38567;SDS011;24338;48.280;10.970;2022-11-23T11:20:27;4.65;;;0.57;;
38567;SDS011;24338;48.280;10.970;2022-11-23T11:23:02;2.70;;;0.30;;
38567;SDS011;24338;48.280;10.970;2022-11-23T11:25:41;2.78;;;0.50;;
38567;SDS011;24338;48.280;10.970;2022-11-23T11:28:20;3.92;;;0.40;;
38567;SDS011;24338;48.280;10.970;2022-11-23T11:31:11;4.83;;;0.60;;
38567;SDS011;24338;48.280;10.970;2022-11-23T11:36:55;3.65;;;0.60;;
38567;SDS011;24338;48.280;10.970;2022-11-23T11:39:43;3.05;;;0.43;;
38567;SDS011;24338;48.280;10.970;2022-11-23T11:45:02;3.35;;;0.35;;
38567;SDS011;24338;48.280;10.970;2022-11-23T11:47:40;2.95;;;0.60;;
38567;SDS011;24338;48.280;10.970;2022-11-23T11:50:27;7.50;;;0.77;;
38567;SDS011;24338;48.280;10.970;2022-11-23T11:53:02;3.65;;;0.40;;
38567;SDS011;24338;48.280;10.970;2022-11-23T11:58:25;3.00;;;0.43;;
38567;SDS011;24338;48.280;10.970;2022-11-23T12:00:55;2.15;;;0.40;;
38567;SDS011;24338;48.280;10.970;2022-11-23T12:03:41;2.75;;;0.47;;
38567;SDS011;24338;48.280;10.970;2022-11-23T12:06:12;2.47;;;0.50;;
38567;SDS011;24338;48.280;10.970;2022-11-23T12:11:51;2.03;;;0.43;;
38567;SDS011;24338;48.280;10.970;2022-11-23T12:14:18;3.45;;;0.40;;
38567;SDS011;24338;48.280;10.970;2022-11-23T12:16:50;2.50;;;0.30;;
38567;SDS011;24338;48.280;10.970;2022-11-23T12:20:16;2.47;;;0.85;;
38567;SDS011;24338;48.280;10.970;2022-11-23T12:30:38;2.80;;;0.40;;
38567;SDS011;24338;48.280;10.970;2022-11-23T12:41:47;6.10;;;0.38;;
38567;SDS011;24338;48.280;10.970;2022-11-23T12:49:49;3.20;;;0.90;;
38567;SDS011;24338;48.280;10.970;2022-11-23T13:01:20;2.95;;;0.40;;
38567;SDS011;24338;48.280;10.970;2022-11-23T13:10:10;1.08;;;0.17;;
38567;SDS011;24338;48.280;10.970;2022-11-23T13:18:44;1.60;;;0.30;;
38567;SDS011;24338;48.280;10.970;2022-11-23T13:21:36;1.50;;;0.30;;
38567;SDS011;24338;48.280;10.970;2022-11-23T13:24:25;2.55;;;0.55;;
38567;SDS011;24338;48.280;10.970;2022-11-23T13:35:00;2.28;;;0.30;;
38567;SDS011;24338;48.280;10.970;2022-11-23T13:37:27;1.20;;;0.17;;
38567;SDS011;24338;48.280;10.970;2022-11-23T13:45:12;1.02;;;0.40;;
38567;SDS011;24338;48.280;10.970;2022-11-23T13:48:02;1.05;;;0.30;;
38567;SDS011;24338;48.280;10.970;2022-11-23T13:50:57;0.68;;;0.10;;
38567;SDS011;24338;48.280;10.970;2022-11-23T13:53:27;3.10;;;0.50;;
38567;SDS011;24338;48.280;10.970;2022-11-23T13:55:59;3.42;;;0.55;;
38567;SDS011;24338;48.280;10.970;2022-11-23T13:58:50;4.32;;;0.30;;
38567;SDS011;24338;48.280;10.970;2022-11-23T14:04:19;2.70;;;0.40;;
38567;SDS011;24338;48.280;10.970;2022-11-23T14:41:06;3.63;;;0.50;;
38567;SDS011;24338;48.280;10.970;2022-11-23T14:43:43;3.03;;;0.50;;
38567;SDS011;24338;48.280;10.970;2022-11-23T14:46:18;1.25;;;0.30;;
38567;SDS011;24338;48.280;10.970;2022-11-23T14:48:47;2.47;;;0.38;;
38567;SDS011;24338;48.280;10.970;2022-11-23T14:51:23;1.67;;;0.50;;
38567;SDS011;24338;48.280;10.970;2022-11-23T14:53:54;3.33;;;0.68;;
38567;SDS011;24338;48.280;10.970;2022-11-23T15:02:04;5.57;;;2.03;;
38567;SDS011;24338;48.280;10.970;2022-11-23T15:04:52;6.57;;;1.60;;
38567;SDS011;24338;48.280;10.970;2022-11-23T15:07:37;18.67;;;11.13;;
38567;SDS011;24338;48.280;10.970;2022-11-23T15:12:46;7.70;;;2.38;;
38567;SDS011;24338;48.280;10.970;2022-11-23T15:15:21;6.95;;;2.22;;
38567;SDS011;24338;48.280;10.970;2022-11-23T15:18:03;7.43;;;2.00;;
38567;SDS011;24338;48.280;10.970;2022-11-23T15:20:33;6.82;;;1.98;;
38567;SDS011;24338;48.280;10.970;2022-11-23T15:23:10;5.68;;;1.67;;
38567;SDS011;24338;48.280;10.970;2022-11-23T15:25:51;8.07;;;2.40;;
38567;SDS011;24338;48.280;10.970;2022-11-23T15:28:24;8.15;;;2.75;;
38567;SDS011;24338;48.280;10.970;2022-11-23T15:30:52;10.32;;;3.50;;
38567;SDS011;24338;48.280;10.970;2022-11-23T15:33:24;24.27;;;13.10;;
38567;SDS011;24338;48.280;10.970;2022-11-23T15:35:51;29.48;;;15.48;;
38567;SDS011;24338;48.280;10.970;2022-11-23T15:38:20;27.40;;;14.23;;
38567;SDS011;24338;48.280;10.970;2022-11-23T15:40:49;22.50;;;11.98;;
38567;SDS011;24338;48.280;10.970;2022-11-23T15:43:17;17.38;;;8.60;;
38567;SDS011;24338;48.280;10.970;2022-11-23T15:48:13;10.38;;;5.18;;
38567;SDS011;24338;48.280;10.970;2022-11-23T15:50:47;11.18;;;6.15;;
38567;SDS011;24338;48.280;10.970;2022-11-23T15:53:19;9.47;;;4.33;;
38567;SDS011;24338;48.280;10.970;2022-11-23T15:55:49;9.30;;;5.18;;
38567;SDS011;24338;48.280;10.970;2022-11-23T15:58:18;8.13;;;4.32;;
38567;SDS011;24338;48.280;10.970;2022-11-23T16:00:50;8.85;;;4.78;;
38567;SDS011;24338;48.280;10.970;2022-11-23T16:09:02;9.23;;;4.97;;
38567;SDS011;24338;48.280;10.970;2022-11-23T16:12:26;7.40;;;3.80;;
38567;SDS011;24338;48.280;10.970;2022-11-23T16:14:54;5.93;;;2.83;;
38567;SDS011;24338;48.280;10.970;2022-11-23T16:17:24;9.65;;;2.97;;
38567;SDS011;24338;48.280;10.970;2022-11-23T16:19:53;8.40;;;2.85;;
38567;SDS011;24338;48.280;10.970;2022-11-23T16:22:35;6.90;;;2.58;;
38567;SDS011;24338;48.280;10.970;2022-11-23T16:25:06;7.13;;;3.05;;
38567;SDS011;24338;48.280;10.970;2022-11-23T16:30:43;10.63;;;4.85;;
38567;SDS011;24338;48.280;10.970;2022-11-23T16:33:14;8.95;;;3.70;;
38567;SDS011;24338;48.280;10.970;2022-11-23T16:35:43;7.68;;;4.13;;
38567;SDS011;24338;48.280;10.970;2022-11-23T16:38:10;8.43;;;4.47;;
38567;SDS011;24338;48.280;10.970;2022-11-23T16:40:40;10.40;;;4.28;;
38567;SDS011;24338;48.280;10.970;2022-11-23T16:43:08;11.93;;;4.20;;
38567;SDS011;24338;48.280;10.970;2022-11-23T16:45:39;7.43;;;4.30;;
38567;SDS011;24338;48.280;10.970;2022-11-23T16:50:53;11.60;;;5.07;;
38567;SDS011;24338;48.280;10.970;2022-11-23T16:53:22;10.05;;;4.50;;
38567;SDS011;24338;48.280;10.970;2022-11-23T16:55:52;9.75;;;5.38;;
38567;SDS011;24338;48.280;10.970;2022-11-23T16:58:20;21.55;;;9.30;;
38567;SDS011;24338;48.280;10.970;2022-11-23T17:00:48;14.05;;;7.03;;
38567;SDS011;24338;48.280;10.970;2022-11-23T17:03:16;14.95;;;7.40;;
38567;SDS011;24338;48.280;10.970;2022-11-23T17:05:44;12.70;;;7.40;;
38567;SDS011;24338;48.280;10.970;2022-11-23T17:08:12;14.00;;;7.25;;
38567;SDS011;24338;48.280;10.970;2022-11-23T17:10:48;12.25;;;7.35;;
38567;SDS011;24338;48.280;10.970;2022-11-23T17:13:20;16.25;;;6.70;;
38567;SDS011;24338;48.280;10.970;2022-11-23T17:15:50;12.23;;;7.30;;
38567;SDS011;24338;48.280;10.970;2022-11-23T17:18:18;12.32;;;6.57;;
38567;SDS011;24338;48.280;10.970;2022-11-23T17:20:45;12.90;;;6.85;;
38567;SDS011;24338;48.280;10.970;2022-11-23T17:23:12;11.77;;;5.65;;
38567;SDS011;24338;48.280;10.970;2022-11-23T17:25:39;12.98;;;6.38;;
38567;SDS011;24338;48.280;10.970;2022-11-23T17:28:10;11.02;;;5.38;;